sensor_id;sensor_type;location;lat;lon;timestamp;pressure;altitude;pressure_sealevel;temperature;humidity
18533;BME280;9396;51.510;11.934;2023-03-21T00:01:33;100692.78;;;9.31;97.50
18533;BME280;9396;51.510;11.934;2023-03-21T00:04:02;100691.38;;;9.36;96.99
18533;BME280;9396;51.510;11.934;2023-03-21T00:06:28;100561.00;;;8.53;97.92
18533;BME280;9396;51.510;11.934;2023-03-21T00:08:55;100692.34;;;9.26;97.75
18533;BME280;9396;51.510;11.934;2023-03-21T00:11:22;100686.19;;;9.35;97.58
18533;BME280;9396;51.510;11.934;2023-03-21T00:13:48;100692.22;;;9.46;98.23
18533;BME280;9396;51.510;11.934;2023-03-21T00:16:17;100691.22;;;9.66;97.63
18533;BME280;9396;51.510;11.934;2023-03-21T00:18:45;100677.25;;;9.74;97.35
18533;BME280;9396;51.510;11.934;2023-03-21T00:21:15;100690.69;;;9.44;97.05
18533;BME280;9396;51.510;11.934;2023-03-21T00:23:42;100689.69;;;9.54;97.06
18533;BME280;9396;51.510;11.934;2023-03-21T00:26:10;100678.66;;;9.68;97.02
18533;BME280;9396;51.510;11.934;2023-03-21T00:28:38;100684.09;;;9.77;97.04
18533;BME280;9396;51.510;11.934;2023-03-21T00:31:05;100677.78;;;9.87;97.07
18533;BME280;9396;51.510;11.934;2023-03-21T00:33:33;100669.81;;;9.97;96.79
18533;BME280;9396;51.510;11.934;2023-03-21T00:36:00;100672.56;;;10.05;96.39
18533;BME280;9396;51.510;11.934;2023-03-21T00:38:28;100668.41;;;10.12;95.96
18533;BME280;9396;51.510;11.934;2023-03-21T00:40:55;100668.25;;;10.04;96.02
18533;BME280;9396;51.510;11.934;2023-03-21T00:43:22;100662.94;;;10.04;95.95
18533;BME280;9396;51.510;11.934;2023-03-21T00:45:55;100665.16;;;10.08;95.32
18533;BME280;9396;51.510;11.934;2023-03-21T00:48:22;100665.88;;;10.10;94.85
18533;BME280;9396;51.510;11.934;2023-03-21T00:50:50;100666.28;;;10.06;94.59
18533;BME280;9396;51.510;11.934;2023-03-21T00:53:18;100667.72;;;10.00;95.13
18533;BME280;9396;51.510;11.934;2023-03-21T00:55:46;100659.34;;;9.86;94.86
18533;BME280;9396;51.510;11.934;2023-03-21T00:58:13;100660.16;;;9.96;94.89
18533;BME280;9396;51.510;11.934;2023-03-21T01:00:40;100657.38;;;9.88;95.29
18533;BME280;9396;51.510;11.934;2023-03-21T01:03:09;100658.78;;;9.82;95.92
18533;BME280;9396;51.510;11.934;2023-03-21T01:05:38;100649.25;;;9.89;95.64
18533;BME280;9396;51.510;11.934;2023-03-21T01:08:23;100644.56;;;9.73;95.82
18533;BME280;9396;51.510;11.934;2023-03-21T01:10:51;100648.31;;;9.71;96.10
18533;BME280;9396;51.510;11.934;2023-03-21T01:13:19;100647.06;;;9.75;95.98
18533;BME280;9396;51.510;11.934;2023-03-21T01:15:48;100649.13;;;9.91;96.02
18533;BME280;9396;51.510;11.934;2023-03-21T01:18:18;100648.69;;;9.95;95.83
18533;BME280;9396;51.510;11.934;2023-03-21T01:20:45;100646.78;;;9.78;95.30
18533;BME280;9396;51.510;11.934;2023-03-21T01:23:13;100648.13;;;9.92;95.43
18533;BME280;9396;51.510;11.934;2023-03-21T01:25:41;100653.72;;;9.98;95.71
18533;BME280;9396;51.510;11.934;2023-03-21T01:28:09;100645.38;;;9.74;94.76
18533;BME280;9396;51.510;11.934;2023-03-21T01:30:36;100649.69;;;9.85;95.40
18533;BME280;9396;51.510;11.934;2023-03-21T01:33:03;100647.00;;;9.94;95.42
18533;BME280;9396;51.510;11.934;2023-03-21T01:35:29;100646.16;;;10.03;95.10
18533;BME280;9396;51.510;11.934;2023-03-21T01:37:56;100644.06;;;9.97;94.94
18533;BME280;9396;51.510;11.934;2023-03-21T01:40:24;100639.91;;;9.85;95.28
18533;BME280;9396;51.510;11.934;2023-03-21T01:42:52;100642.25;;;9.88;94.83
18533;BME280;9396;51.510;11.934;2023-03-21T01:48:24;100638.25;;;9.84;94.75
18533;BME280;9396;51.510;11.934;2023-03-21T01:50:52;100646.16;;;9.94;94.75
18533;BME280;9396;51.510;11.934;2023-03-21T01:53:19;100637.66;;;9.90;95.28
18533;BME280;9396;51.510;11.934;2023-03-21T01:55:47;100630.06;;;9.95;95.04
18533;BME280;9396;51.510;11.934;2023-03-21T01:58:15;100637.50;;;9.92;94.34
18533;BME280;9396;51.510;11.934;2023-03-21T02:00:45;100635.75;;;9.73;94.69
18533;BME280;9396;51.510;11.934;2023-03-21T02:03:12;100635.47;;;9.47;96.57
18533;BME280;9396;51.510;11.934;2023-03-21T02:05:51;100630.28;;;9.65;95.97
18533;BME280;9396;51.510;11.934;2023-03-21T02:08:20;100621.50;;;9.55;96.22
18533;BME280;9396;51.510;11.934;2023-03-21T02:10:48;100623.31;;;9.64;95.46
18533;BME280;9396;51.510;11.934;2023-03-21T02:13:15;100621.19;;;9.67;95.23
18533;BME280;9396;51.510;11.934;2023-03-21T02:15:46;100625.81;;;9.56;95.86
18533;BME280;9396;51.510;11.934;2023-03-21T02:18:23;100618.00;;;9.54;96.52
18533;BME280;9396;51.510;11.934;2023-03-21T02:21:35;100609.72;;;9.67;96.72
18533;BME280;9396;51.510;11.934;2023-03-21T02:27:09;100610.47;;;9.50;96.82
18533;BME280;9396;51.510;11.934;2023-03-21T02:29:57;100608.66;;;9.50;97.02
18533;BME280;9396;51.510;11.934;2023-03-21T02:32:37;100605.13;;;9.59;97.05
18533;BME280;9396;51.510;11.934;2023-03-21T02:35:22;100612.97;;;9.61;96.71
18533;BME280;9396;51.510;11.934;2023-03-21T02:37:56;100610.59;;;9.58;97.35
18533;BME280;9396;51.510;11.934;2023-03-21T02:40:30;100611.00;;;9.63;96.93
18533;BME280;9396;51.510;11.934;2023-03-21T02:43:03;100605.81;;;9.71;97.37
18533;BME280;9396;51.510;11.934;2023-03-21T02:45:35;100612.34;;;9.86;96.57
18533;BME280;9396;51.510;11.934;2023-03-21T02:48:07;100611.47;;;9.95;95.96
18533;BME280;9396;51.510;11.934;2023-03-21T02:50:38;100613.41;;;10.03;95.65
18533;BME280;9396;51.510;11.934;2023-03-21T02:53:09;100615.75;;;9.79;96.53
18533;BME280;9396;51.510;11.934;2023-03-21T02:55:38;100615.44;;;9.72;96.80
18533;BME280;9396;51.510;11.934;2023-03-21T02:58:07;100610.69;;;9.75;96.02
18533;BME280;9396;51.510;11.934;2023-03-21T03:00:35;100611.13;;;9.81;96.12
18533;BME280;9396;51.510;11.934;2023-03-21T03:03:02;100616.25;;;9.92;95.68
18533;BME280;9396;51.510;11.934;2023-03-21T03:05:32;100615.69;;;9.98;95.49
18533;BME280;9396;51.510;11.934;2023-03-21T03:08:18;100612.78;;;9.82;95.18
18533;BME280;9396;51.510;11.934;2023-03-21T03:10:58;100610.94;;;9.92;95.81
18533;BME280;9396;51.510;11.934;2023-03-21T03:13:44;100611.06;;;10.00;95.05
18533;BME280;9396;51.510;11.934;2023-03-21T03:16:21;100614.78;;;9.70;96.22
18533;BME280;9396;51.510;11.934;2023-03-21T03:18:52;100616.16;;;9.74;96.80
18533;BME280;9396;51.510;11.934;2023-03-21T03:21:22;100610.38;;;9.88;96.38
18533;BME280;9396;51.510;11.934;2023-03-21T03:23:56;100610.91;;;10.01;95.93
18533;BME280;9396;51.510;11.934;2023-03-21T03:26:28;100614.25;;;10.03;96.02
18533;BME280;9396;51.510;11.934;2023-03-21T03:28:59;100601.66;;;10.05;96.09
18533;BME280;9396;51.510;11.934;2023-03-21T03:31:32;100606.47;;;9.92;97.02
18533;BME280;9396;51.510;11.934;2023-03-21T03:34:04;100603.66;;;9.94;97.41
18533;BME280;9396;51.510;11.934;2023-03-21T03:36:34;100598.88;;;9.97;97.48
18533;BME280;9396;51.510;11.934;2023-03-21T03:39:07;100609.81;;;9.94;98.14
18533;BME280;9396;51.510;11.934;2023-03-21T03:41:40;100601.69;;;9.96;98.02
18533;BME280;9396;51.510;11.934;2023-03-21T03:44:08;100598.72;;;9.99;98.13
18533;BME280;9396;51.510;11.934;2023-03-21T03:46:38;100603.38;;;9.97;98.16
18533;BME280;9396;51.510;11.934;2023-03-21T03:49:10;100536.94;;;9.60;98.65
18533;BME280;9396;51.510;11.934;2023-03-21T03:51:43;100596.28;;;9.88;97.94
18533;BME280;9396;51.510;11.934;2023-03-21T03:54:18;100597.56;;;9.74;98.83
18533;BME280;9396;51.510;11.934;2023-03-21T03:56:46;100602.66;;;9.48;99.52
18533;BME280;9396;51.510;11.934;2023-03-21T03:59:14;100595.34;;;9.60;100.00
18533;BME280;9396;51.510;11.934;2023-03-21T04:01:43;100596.19;;;9.51;100.00
18533;BME280;9396;51.510;11.934;2023-03-21T04:04:10;100585.88;;;9.38;100.00
18533;BME280;9396;51.510;11.934;2023-03-21T04:06:37;100588.81;;;9.45;100.00
18533;BME280;9396;51.510;11.934;2023-03-21T04:09:05;100593.94;;;9.56;100.00
18533;BME280;9396;51.510;11.934;2023-03-21T04:11:33;100591.00;;;9.68;100.00
18533;BME280;9396;51.510;11.934;2023-03-21T04:14:00;100589.59;;;9.74;100.00
18533;BME280;9396;51.510;11.934;2023-03-21T04:16:27;100589.75;;;9.63;100.00
18533;BME280;9396;51.510;11.934;2023-03-21T04:18:55;100593.13;;;9.55;100.00
18533;BME280;9396;51.510;11.934;2023-03-21T04:21:22;100582.47;;;9.65;100.00
18533;BME280;9396;51.510;11.934;2023-03-21T04:23:48;100595.19;;;9.71;100.00
18533;BME280;9396;51.510;11.934;2023-03-21T04:26:15;100590.59;;;9.63;100.00
18533;BME280;9396;51.510;11.934;2023-03-21T04:28:43;100588.53;;;9.57;100.00
18533;BME280;9396;51.510;11.934;2023-03-21T04:31:10;100584.16;;;9.66;100.00
18533;BME280;9396;51.510;11.934;2023-03-21T04:33:37;100575.09;;;9.59;100.00
18533;BME280;9396;51.510;11.934;2023-03-21T04:36:05;100579.25;;;9.71;100.00
18533;BME280;9396;51.510;11.934;2023-03-21T04:38:33;100576.16;;;9.75;100.00
18533;BME280;9396;51.510;11.934;2023-03-21T04:41:01;100576.91;;;9.68;100.00
18533;BME280;9396;51.510;11.934;2023-03-21T04:43:28;100581.28;;;9.40;100.00
18533;BME280;9396;51.510;11.934;2023-03-21T04:45:56;100583.41;;;9.27;100.00
18533;BME280;9396;51.510;11.934;2023-03-21T04:48:23;100582.81;;;9.43;100.00
18533;BME280;9396;51.510;11.934;2023-03-21T04:50:50;100583.63;;;9.43;100.00
18533;BME280;9396;51.510;11.934;2023-03-21T04:53:17;100588.38;;;9.59;100.00
18533;BME280;9396;51.510;11.934;2023-03-21T04:55:44;100581.06;;;9.70;100.00
18533;BME280;9396;51.510;11.934;2023-03-21T04:58:10;100583.00;;;9.78;100.00
18533;BME280;9396;51.510;11.934;2023-03-21T05:00:37;100576.13;;;9.85;100.00
18533;BME280;9396;51.510;11.934;2023-03-21T05:03:06;100574.88;;;9.89;99.84
18533;BME280;9396;51.510;11.934;2023-03-21T05:05:35;100575.41;;;9.93;99.55
18533;BME280;9396;51.510;11.934;2023-03-21T05:08:02;100575.13;;;9.96;99.10
18533;BME280;9396;51.510;11.934;2023-03-21T05:10:29;100584.47;;;10.00;99.01
18533;BME280;9396;51.510;11.934;2023-03-21T05:12:56;100587.28;;;9.98;99.05
18533;BME280;9396;51.510;11.934;2023-03-21T05:15:22;100585.19;;;9.92;99.02
18533;BME280;9396;51.510;11.934;2023-03-21T05:17:49;100582.84;;;9.89;99.25
18533;BME280;9396;51.510;11.934;2023-03-21T05:20:17;100579.88;;;9.92;99.44
18533;BME280;9396;51.510;11.934;2023-03-21T05:22:44;100584.91;;;9.95;99.74
18533;BME280;9396;51.510;11.934;2023-03-21T05:25:16;100580.00;;;10.00;99.49
18533;BME280;9396;51.510;11.934;2023-03-21T05:27:58;100443.84;;;9.25;99.63
18533;BME280;9396;51.510;11.934;2023-03-21T05:30:27;100492.22;;;9.55;99.55
18533;BME280;9396;51.510;11.934;2023-03-21T05:32:54;100580.09;;;10.08;99.57
18533;BME280;9396;51.510;11.934;2023-03-21T05:35:22;100577.31;;;10.10;99.46
18533;BME280;9396;51.510;11.934;2023-03-21T05:37:49;100576.59;;;10.08;99.14
18533;BME280;9396;51.510;11.934;2023-03-21T05:40:15;100574.09;;;10.06;98.81
18533;BME280;9396;51.510;11.934;2023-03-21T05:42:42;100571.44;;;10.06;98.97
18533;BME280;9396;51.510;11.934;2023-03-21T05:45:10;100571.44;;;10.06;99.13
18533;BME280;9396;51.510;11.934;2023-03-21T05:47:36;100580.09;;;10.08;98.99
18533;BME280;9396;51.510;11.934;2023-03-21T05:50:04;100574.66;;;10.10;99.23
18533;BME280;9396;51.510;11.934;2023-03-21T05:52:32;100580.00;;;10.10;99.14
18533;BME280;9396;51.510;11.934;2023-03-21T05:54:59;100586.84;;;10.12;99.21
18533;BME280;9396;51.510;11.934;2023-03-21T05:57:26;100578.72;;;10.14;98.88
18533;BME280;9396;51.510;11.934;2023-03-21T05:59:53;100579.03;;;10.01;98.89
18533;BME280;9396;51.510;11.934;2023-03-21T06:02:20;100576.06;;;10.04;98.99
18533;BME280;9396;51.510;11.934;2023-03-21T06:04:46;100581.38;;;10.04;99.06
18533;BME280;9396;51.510;11.934;2023-03-21T06:07:13;100584.03;;;10.04;98.76
18533;BME280;9396;51.510;11.934;2023-03-21T06:09:41;100579.34;;;9.89;98.63
18533;BME280;9396;51.510;11.934;2023-03-21T06:12:08;100581.84;;;9.90;98.11
18533;BME280;9396;51.510;11.934;2023-03-21T06:14:34;100583.78;;;9.98;98.48
18533;BME280;9396;51.510;11.934;2023-03-21T06:17:01;100584.28;;;9.74;99.84
18533;BME280;9396;51.510;11.934;2023-03-21T06:19:27;100582.78;;;9.62;100.00
18533;BME280;9396;51.510;11.934;2023-03-21T06:21:54;100587.91;;;9.73;100.00
18533;BME280;9396;51.510;11.934;2023-03-21T06:24:21;100585.84;;;9.67;100.00
18533;BME280;9396;51.510;11.934;2023-03-21T06:26:49;100592.00;;;9.67;100.00
18533;BME280;9396;51.510;11.934;2023-03-21T06:29:15;100584.25;;;9.84;99.89
18533;BME280;9396;51.510;11.934;2023-03-21T06:31:42;100582.13;;;9.97;99.61
18533;BME280;9396;51.510;11.934;2023-03-21T06:34:09;100582.06;;;10.06;99.14
18533;BME280;9396;51.510;11.934;2023-03-21T06:36:36;100575.06;;;10.15;98.69
18533;BME280;9396;51.510;11.934;2023-03-21T06:39:02;100577.44;;;10.08;98.20
18533;BME280;9396;51.510;11.934;2023-03-21T06:41:30;100580.09;;;10.18;98.25
18533;BME280;9396;51.510;11.934;2023-03-21T06:43:58;100577.69;;;10.24;98.17
18533;BME280;9396;51.510;11.934;2023-03-21T06:46:25;100576.41;;;10.28;97.82
18533;BME280;9396;51.510;11.934;2023-03-21T06:48:51;100588.16;;;10.26;97.63
18533;BME280;9396;51.510;11.934;2023-03-21T06:51:18;100582.28;;;10.32;97.41
18533;BME280;9396;51.510;11.934;2023-03-21T06:53:45;100573.56;;;10.39;97.21
18533;BME280;9396;51.510;11.934;2023-03-21T06:56:12;100582.66;;;10.37;96.52
18533;BME280;9396;51.510;11.934;2023-03-21T06:58:39;100577.50;;;10.35;95.89
18533;BME280;9396;51.510;11.934;2023-03-21T07:01:07;100584.75;;;10.43;96.09
18533;BME280;9396;51.510;11.934;2023-03-21T07:03:34;100587.47;;;10.51;96.52
18533;BME280;9396;51.510;11.934;2023-03-21T07:06:06;100584.75;;;10.43;96.49
18533;BME280;9396;51.510;11.934;2023-03-21T07:08:36;100598.28;;;10.49;96.13
18533;BME280;9396;51.510;11.934;2023-03-21T07:11:03;100588.88;;;10.55;95.58
18533;BME280;9396;51.510;11.934;2023-03-21T07:13:30;100590.09;;;10.60;96.02
18533;BME280;9396;51.510;11.934;2023-03-21T07:15:57;100582.34;;;10.67;96.10
18533;BME280;9396;51.510;11.934;2023-03-21T07:18:25;100582.34;;;10.67;95.59
18533;BME280;9396;51.510;11.934;2023-03-21T07:20:52;100583.78;;;10.61;94.82
18533;BME280;9396;51.510;11.934;2023-03-21T07:23:19;100581.59;;;10.74;95.66
18533;BME280;9396;51.510;11.934;2023-03-21T07:25:46;100580.69;;;10.84;95.96
18533;BME280;9396;51.510;11.934;2023-03-21T07:28:13;100577.03;;;10.85;96.66
18533;BME280;9396;51.510;11.934;2023-03-21T07:30:40;100578.88;;;11.02;97.53
18533;BME280;9396;51.510;11.934;2023-03-21T07:33:07;100576.06;;;11.21;98.25
18533;BME280;9396;51.510;11.934;2023-03-21T07:35:35;100577.81;;;11.30;96.17
18533;BME280;9396;51.510;11.934;2023-03-21T07:38:02;100571.91;;;11.44;95.45
18533;BME280;9396;51.510;11.934;2023-03-21T07:40:29;100572.66;;;11.54;94.86
18533;BME280;9396;51.510;11.934;2023-03-21T07:42:56;100574.91;;;11.41;95.25
18533;BME280;9396;51.510;11.934;2023-03-21T07:45:22;100567.53;;;11.60;95.56
18533;BME280;9396;51.510;11.934;2023-03-21T07:47:51;100582.56;;;11.44;94.98
18533;BME280;9396;51.510;11.934;2023-03-21T07:50:18;100579.69;;;11.20;94.93
18533;BME280;9396;51.510;11.934;2023-03-21T07:52:46;100573.53;;;11.37;97.45
18533;BME280;9396;51.510;11.934;2023-03-21T07:55:13;100568.09;;;11.46;95.58
18533;BME280;9396;51.510;11.934;2023-03-21T07:57:41;100567.19;;;11.38;94.55
18533;BME280;9396;51.510;11.934;2023-03-21T08:00:09;100569.44;;;11.68;97.22
18533;BME280;9396;51.510;11.934;2023-03-21T08:02:37;100563.13;;;11.69;93.85
18533;BME280;9396;51.510;11.934;2023-03-21T08:05:04;100575.00;;;11.74;94.72
18533;BME280;9396;51.510;11.934;2023-03-21T08:07:30;100575.28;;;11.71;94.75
18533;BME280;9396;51.510;11.934;2023-03-21T08:09:58;100576.19;;;11.37;93.64
18533;BME280;9396;51.510;11.934;2023-03-21T08:12:25;100574.81;;;11.33;93.57
18533;BME280;9396;51.510;11.934;2023-03-21T08:14:52;100574.81;;;11.33;94.28
18533;BME280;9396;51.510;11.934;2023-03-21T08:17:18;100570.75;;;11.46;93.37
18533;BME280;9396;51.510;11.934;2023-03-21T08:19:45;100576.50;;;11.34;92.47
18533;BME280;9396;51.510;11.934;2023-03-21T08:22:12;100572.38;;;11.39;93.90
18533;BME280;9396;51.510;11.934;2023-03-21T08:24:38;100576.91;;;11.47;94.47
18533;BME280;9396;51.510;11.934;2023-03-21T08:27:06;100577.81;;;11.30;93.94
18533;BME280;9396;51.510;11.934;2023-03-21T08:29:33;100578.47;;;11.32;94.25
18533;BME280;9396;51.510;11.934;2023-03-21T08:32:04;100585.38;;;11.42;94.48
18533;BME280;9396;51.510;11.934;2023-03-21T08:34:31;100577.34;;;11.60;93.39
18533;BME280;9396;51.510;11.934;2023-03-21T08:36:58;100576.91;;;11.47;93.92
18533;BME280;9396;51.510;11.934;2023-03-21T08:39:25;100580.28;;;11.49;93.37
18533;BME280;9396;51.510;11.934;2023-03-21T08:41:52;100579.53;;;11.39;95.85
18533;BME280;9396;51.510;11.934;2023-03-21T08:44:20;100577.25;;;11.44;96.12
18533;BME280;9396;51.510;11.934;2023-03-21T08:46:49;100584.03;;;11.38;94.11
18533;BME280;9396;51.510;11.934;2023-03-21T08:49:16;100577.69;;;11.39;93.40
18533;BME280;9396;51.510;11.934;2023-03-21T08:51:42;100581.19;;;11.40;93.21
18533;BME280;9396;51.510;11.934;2023-03-21T08:54:17;100576.34;;;11.61;93.13
18533;BME280;9396;51.510;11.934;2023-03-21T08:56:44;100577.28;;;11.52;94.54
18533;BME280;9396;51.510;11.934;2023-03-21T08:59:11;100579.81;;;11.53;93.14
18533;BME280;9396;51.510;11.934;2023-03-21T09:01:39;100577.53;;;11.58;92.80
18533;BME280;9396;51.510;11.934;2023-03-21T09:04:06;100573.78;;;11.69;91.70
18533;BME280;9396;51.510;11.934;2023-03-21T09:06:35;100571.81;;;11.53;92.23
18533;BME280;9396;51.510;11.934;2023-03-21T09:09:02;100572.44;;;11.65;92.67
18533;BME280;9396;51.510;11.934;2023-03-21T09:11:31;100561.19;;;11.79;92.47
18533;BME280;9396;51.510;11.934;2023-03-21T09:13:58;100564.72;;;11.62;91.69
18533;BME280;9396;51.510;11.934;2023-03-21T09:16:25;100563.69;;;11.55;94.26
18533;BME280;9396;51.510;11.934;2023-03-21T09:18:52;100566.31;;;11.72;94.22
18533;BME280;9396;51.510;11.934;2023-03-21T09:21:22;100558.09;;;11.92;92.32
18533;BME280;9396;51.510;11.934;2023-03-21T09:23:49;100554.84;;;12.06;91.63
18533;BME280;9396;51.510;11.934;2023-03-21T09:26:18;100554.75;;;12.23;90.48
18533;BME280;9396;51.510;11.934;2023-03-21T09:28:45;100550.31;;;12.40;92.63
18533;BME280;9396;51.510;11.934;2023-03-21T09:31:12;100551.72;;;12.60;92.84
18533;BME280;9396;51.510;11.934;2023-03-21T09:33:41;100544.25;;;12.79;91.44
18533;BME280;9396;51.510;11.934;2023-03-21T09:36:11;100553.44;;;12.93;89.48
18533;BME280;9396;51.510;11.934;2023-03-21T09:38:38;100547.81;;;13.04;89.99
18533;BME280;9396;51.510;11.934;2023-03-21T09:41:24;100540.97;;;13.10;88.57
18533;BME280;9396;51.510;11.934;2023-03-21T09:44:08;100537.97;;;13.21;90.57
18533;BME280;9396;51.510;11.934;2023-03-21T09:46:41;100529.97;;;13.21;88.60
18533;BME280;9396;51.510;11.934;2023-03-21T09:49:15;100532.94;;;13.42;91.91
18533;BME280;9396;51.510;11.934;2023-03-21T09:51:48;100528.59;;;13.49;91.16
18533;BME280;9396;51.510;11.934;2023-03-21T09:54:19;100529.75;;;13.46;87.64
18533;BME280;9396;51.510;11.934;2023-03-21T09:56:48;100528.59;;;13.49;90.39
18533;BME280;9396;51.510;11.934;2023-03-21T09:59:22;100534.94;;;13.56;89.39
18533;BME280;9396;51.510;11.934;2023-03-21T10:01:51;100527.56;;;13.58;86.99
18533;BME280;9396;51.510;11.934;2023-03-21T10:04:20;100529.91;;;13.53;84.19
18533;BME280;9396;51.510;11.934;2023-03-21T10:06:53;100531.56;;;13.62;87.66
18533;BME280;9396;51.510;11.934;2023-03-21T10:09:22;100522.03;;;13.67;89.52
18533;BME280;9396;51.510;11.934;2023-03-21T10:11:54;100521.84;;;13.69;88.73
18533;BME280;9396;51.510;11.934;2023-03-21T10:14:27;100521.53;;;13.64;86.27
18533;BME280;9396;51.510;11.934;2023-03-21T10:16:57;100509.50;;;13.68;86.28
18533;BME280;9396;51.510;11.934;2023-03-21T10:19:27;100510.84;;;13.72;85.45
18533;BME280;9396;51.510;11.934;2023-03-21T10:21:55;100509.81;;;13.73;84.95
18533;BME280;9396;51.510;11.934;2023-03-21T10:24:24;100465.09;;;13.59;85.15
18533;BME280;9396;51.510;11.934;2023-03-21T10:26:52;100506.59;;;13.85;86.78
18533;BME280;9396;51.510;11.934;2023-03-21T10:29:21;100501.09;;;13.87;87.43
18533;BME280;9396;51.510;11.934;2023-03-21T10:31:50;100504.13;;;13.84;85.65
18533;BME280;9396;51.510;11.934;2023-03-21T10:34:26;100492.13;;;13.72;86.48
18533;BME280;9396;51.510;11.934;2023-03-21T10:36:55;100494.13;;;13.70;88.34
18533;BME280;9396;51.510;11.934;2023-03-21T10:39:26;100497.25;;;13.81;85.31
18533;BME280;9396;51.510;11.934;2023-03-21T10:41:53;100493.41;;;13.84;84.81
18533;BME280;9396;51.510;11.934;2023-03-21T10:44:20;100492.75;;;13.82;85.95
18533;BME280;9396;51.510;11.934;2023-03-21T10:46:51;100487.69;;;13.95;86.15
18533;BME280;9396;51.510;11.934;2023-03-21T10:49:19;100485.53;;;13.90;85.73
18533;BME280;9396;51.510;11.934;2023-03-21T10:51:48;100486.69;;;13.96;87.74
18533;BME280;9396;51.510;11.934;2023-03-21T10:54:19;100478.47;;;13.97;84.20
18533;BME280;9396;51.510;11.934;2023-03-21T10:56:54;100484.13;;;14.11;86.80
18533;BME280;9396;51.510;11.934;2023-03-21T10:59:23;100476.56;;;14.14;86.51
18533;BME280;9396;51.510;11.934;2023-03-21T11:01:51;100476.38;;;14.24;87.24
18533;BME280;9396;51.510;11.934;2023-03-21T11:04:21;100473.91;;;14.14;86.43
18533;BME280;9396;51.510;11.934;2023-03-21T11:06:51;100472.38;;;14.12;83.82
18533;BME280;9396;51.510;11.934;2023-03-21T11:09:22;100470.06;;;14.17;84.12
18533;BME280;9396;51.510;11.934;2023-03-21T11:11:52;100463.84;;;14.16;84.82
18533;BME280;9396;51.510;11.934;2023-03-21T11:14:32;100465.84;;;14.22;84.57
18533;BME280;9396;51.510;11.934;2023-03-21T11:16:59;100463.25;;;14.37;84.49
18533;BME280;9396;51.510;11.934;2023-03-21T11:19:30;100456.44;;;14.34;82.63
18533;BME280;9396;51.510;11.934;2023-03-21T11:21:57;100455.72;;;14.40;84.16
18533;BME280;9396;51.510;11.934;2023-03-21T11:24:27;100451.09;;;14.34;84.49
18533;BME280;9396;51.510;11.934;2023-03-21T11:26:56;100447.53;;;14.42;83.95
18533;BME280;9396;51.510;11.934;2023-03-21T11:29:28;100438.59;;;14.49;85.16
18533;BME280;9396;51.510;11.934;2023-03-21T11:31:59;100360.56;;;14.07;84.92
18533;BME280;9396;51.510;11.934;2023-03-21T11:34:30;100443.47;;;14.68;84.48
18533;BME280;9396;51.510;11.934;2023-03-21T11:37:01;100437.22;;;14.76;84.63
18533;BME280;9396;51.510;11.934;2023-03-21T11:39:33;100439.00;;;14.83;84.58
18533;BME280;9396;51.510;11.934;2023-03-21T11:42:01;100434.28;;;14.85;82.01
18533;BME280;9396;51.510;11.934;2023-03-21T11:44:31;100423.50;;;14.93;81.70
18533;BME280;9396;51.510;11.934;2023-03-21T11:46:58;100423.44;;;15.01;83.12
18533;BME280;9396;51.510;11.934;2023-03-21T11:49:25;100420.19;;;15.06;82.46
18533;BME280;9396;51.510;11.934;2023-03-21T11:52:15;100422.25;;;15.04;83.65
18533;BME280;9396;51.510;11.934;2023-03-21T11:55:10;100416.78;;;14.97;82.94
18533;BME280;9396;51.510;11.934;2023-03-21T11:57:52;100405.13;;;14.90;84.27
18533;BME280;9396;51.510;11.934;2023-03-21T12:00:25;100402.91;;;14.94;83.60
18533;BME280;9396;51.510;11.934;2023-03-21T12:03:32;100403.09;;;14.92;84.06
18533;BME280;9396;51.510;11.934;2023-03-21T12:06:11;100392.94;;;15.02;83.96
18533;BME280;9396;51.510;11.934;2023-03-21T12:08:47;100396.56;;;15.10;83.76
18533;BME280;9396;51.510;11.934;2023-03-21T12:11:25;100381.41;;;15.17;82.44
18533;BME280;9396;51.510;11.934;2023-03-21T12:14:02;100384.00;;;15.25;82.72
18533;BME280;9396;51.510;11.934;2023-03-21T12:16:44;100379.19;;;15.35;82.69
18533;BME280;9396;51.510;11.934;2023-03-21T12:19:30;100383.91;;;15.33;83.30
18533;BME280;9396;51.510;11.934;2023-03-21T12:22:05;100379.00;;;15.36;83.17
18533;BME280;9396;51.510;11.934;2023-03-21T12:24:40;100373.38;;;15.31;80.79
18533;BME280;9396;51.510;11.934;2023-03-21T12:27:17;100376.16;;;15.38;82.54
18533;BME280;9396;51.510;11.934;2023-03-21T12:29:58;100368.94;;;15.38;82.55
18533;BME280;9396;51.510;11.934;2023-03-21T12:32:41;100373.03;;;15.34;83.17
18533;BME280;9396;51.510;11.934;2023-03-21T12:35:24;100370.63;;;15.25;83.88
18533;BME280;9396;51.510;11.934;2023-03-21T12:38:01;100369.69;;;15.18;83.61
18533;BME280;9396;51.510;11.934;2023-03-21T12:40:41;100363.69;;;15.16;84.22
18533;BME280;9396;51.510;11.934;2023-03-21T12:43:40;100360.53;;;15.12;83.48
18533;BME280;9396;51.510;11.934;2023-03-21T12:46:12;100363.59;;;15.09;83.04
18533;BME280;9396;51.510;11.934;2023-03-21T12:48:43;100360.53;;;15.12;82.60
18533;BME280;9396;51.510;11.934;2023-03-21T12:51:13;100350.94;;;15.18;82.55
18533;BME280;9396;51.510;11.934;2023-03-21T12:53:49;100249.00;;;14.53;84.67
18533;BME280;9396;51.510;11.934;2023-03-21T12:56:20;100359.63;;;15.20;84.19
18533;BME280;9396;51.510;11.934;2023-03-21T12:58:53;100360.28;;;15.22;83.49
18533;BME280;9396;51.510;11.934;2023-03-21T13:01:23;100357.59;;;15.22;83.91
18533;BME280;9396;51.510;11.934;2023-03-21T13:03:56;100354.91;;;15.22;82.56
18533;BME280;9396;51.510;11.934;2023-03-21T13:06:26;100356.56;;;15.23;85.57
18533;BME280;9396;51.510;11.934;2023-03-21T13:08:57;100354.16;;;15.28;83.23
18533;BME280;9396;51.510;11.934;2023-03-21T13:11:28;100350.75;;;15.34;83.64
18533;BME280;9396;51.510;11.934;2023-03-21T13:14:00;100348.25;;;15.32;82.11